createdAt,value
2022-11-13T00:02:54.121Z,123.10
2022-11-13T00:06:01.158Z,113.07
2022-11-13T00:09:12.005Z,118.40
2022-11-13T00:12:18.453Z,117.57
2022-11-13T00:15:26.355Z,117.40
2022-11-13T00:18:35.664Z,113.30
2022-11-13T00:21:42.349Z,107.40
2022-11-13T00:24:49.976Z,114.50
2022-11-13T00:27:56.318Z,128.53
2022-11-13T00:31:04.009Z,114.23
2022-11-13T00:34:41.108Z,116.47
2022-11-13T00:37:37.977Z,111.60
2022-11-13T00:40:45.937Z,112.30
2022-11-13T00:43:52.836Z,116.10
2022-11-13T00:46:59.531Z,117.23
2022-11-13T00:50:06.675Z,117.70
2022-11-13T00:53:17.900Z,114.83
2022-11-13T00:56:26.039Z,141.33
2022-11-13T00:59:32.676Z,125.53
2022-11-13T01:02:39.113Z,125.00
2022-11-13T01:05:47.740Z,120.57
2022-11-13T01:08:55.757Z,121.30
2022-11-13T01:12:03.834Z,135.00
2022-11-13T01:15:10.970Z,118.00
2022-11-13T01:18:17.464Z,112.47
2022-11-13T01:21:26.311Z,127.63
2022-11-13T01:24:33.068Z,121.00
2022-11-13T01:27:41.090Z,122.03
2022-11-13T01:30:47.565Z,126.13
2022-11-13T01:33:54.385Z,120.93
2022-11-13T01:37:01.122Z,144.33
2022-11-13T01:40:08.607Z,136.23
2022-11-13T01:43:27.289Z,128.70
2022-11-13T01:46:34.859Z,118.10
2022-11-13T01:49:44.714Z,124.17
2022-11-13T01:52:50.996Z,119.43
2022-11-13T01:55:57.561Z,118.33
2022-11-13T01:59:09.833Z,111.33
2022-11-13T02:02:16.928Z,125.43
2022-11-13T02:05:23.386Z,125.87
2022-11-13T02:08:31.509Z,136.20
2022-11-13T02:11:39.823Z,123.30
2022-11-13T02:14:52.593Z,139.83
2022-11-13T02:18:01.981Z,125.93
2022-11-13T02:21:21.631Z,131.57
2022-11-13T02:24:35.049Z,120.63
2022-11-13T02:27:46.248Z,128.87
2022-11-13T02:30:52.682Z,133.97
2022-11-13T02:33:59.060Z,121.80
2022-11-13T02:37:05.332Z,125.30
2022-11-13T02:40:14.307Z,123.87
2022-11-13T02:43:20.654Z,122.27
2022-11-13T02:46:26.995Z,124.50
2022-11-13T02:49:33.776Z,126.00
2022-11-13T02:52:40.554Z,122.13
2022-11-13T02:55:48.292Z,124.27
2022-11-13T02:58:55.219Z,126.17
2022-11-13T03:02:02.001Z,125.23
2022-11-13T03:05:13.548Z,104.97
2022-11-13T03:08:20.755Z,124.93
2022-11-13T03:11:28.864Z,110.43
2022-11-13T03:14:35.232Z,118.27
2022-11-13T03:17:41.566Z,127.30
2022-11-13T03:20:53.766Z,120.03
2022-11-13T03:24:00.412Z,109.73
2022-11-13T03:27:08.171Z,112.87
2022-11-13T03:30:14.798Z,114.37
2022-11-13T03:33:21.169Z,118.83
2022-11-13T03:36:27.582Z,100.97
2022-11-13T03:39:33.889Z,112.53
2022-11-13T03:42:41.682Z,97.87
2022-11-13T03:45:48.671Z,103.27
2022-11-13T03:48:55.274Z,97.80
2022-11-13T03:52:01.811Z,95.10
2022-11-13T03:55:08.984Z,98.77
2022-11-13T03:58:17.123Z,99.53
2022-11-13T04:01:24.058Z,101.03
2022-11-13T04:04:30.688Z,105.23
2022-11-13T04:07:37.148Z,104.07
2022-11-13T04:10:44.113Z,109.53
2022-11-13T04:13:51.891Z,93.60
2022-11-13T04:16:58.679Z,86.97
2022-11-13T04:20:06.421Z,94.47
2022-11-13T04:23:14.229Z,95.87
2022-11-13T04:26:21.012Z,82.53
2022-11-13T04:29:28.787Z,90.17
2022-11-13T04:32:35.289Z,90.57
2022-11-13T04:35:45.558Z,89.83
2022-11-13T04:38:52.416Z,86.13
2022-11-13T04:42:16.531Z,83.33
2022-11-13T04:45:27.389Z,81.00
2022-11-13T04:48:33.859Z,82.17
2022-11-13T04:51:40.375Z,83.73
2022-11-13T04:54:46.809Z,86.10
2022-11-13T04:57:55.478Z,88.53
2022-11-13T05:01:04.024Z,91.00
2022-11-13T05:04:11.943Z,85.23
2022-11-13T05:07:18.660Z,79.73
2022-11-13T05:10:25.083Z,80.20
2022-11-13T05:13:32.747Z,81.23
2022-11-13T05:16:41.121Z,85.67
2022-11-13T05:19:47.486Z,82.83
2022-11-13T05:22:53.973Z,82.40
2022-11-13T05:26:05.323Z,83.33
2022-11-13T05:29:12.083Z,77.37
2022-11-13T05:32:19.851Z,86.67
2022-11-13T05:35:26.307Z,74.10
2022-11-13T05:38:33.385Z,79.43
2022-11-13T05:41:39.906Z,80.27
2022-11-13T05:44:46.450Z,85.63
2022-11-13T05:47:54.541Z,77.53
2022-11-13T05:51:05.045Z,83.27
2022-11-13T05:54:11.930Z,88.07
2022-11-13T05:57:18.736Z,87.07
2022-11-13T06:00:25.156Z,79.43
2022-11-13T06:03:33.038Z,73.87
2022-11-13T06:06:39.677Z,73.03
2022-11-13T06:09:46.227Z,72.63
2022-11-13T06:12:52.735Z,69.53
2022-11-13T06:16:02.441Z,86.20
2022-11-13T06:19:11.687Z,77.43
2022-11-13T06:22:18.186Z,67.53
2022-11-13T06:25:24.793Z,72.07
2022-11-13T06:28:31.899Z,79.40
2022-11-13T06:31:38.903Z,74.07
2022-11-13T06:34:46.691Z,72.00
2022-11-13T06:37:55.056Z,73.63
2022-11-13T06:41:02.429Z,76.70
2022-11-13T06:44:09.009Z,72.33
2022-11-13T06:47:16.167Z,80.33
2022-11-13T06:50:24.134Z,70.70
2022-11-13T06:53:30.873Z,69.20
2022-11-13T06:56:37.576Z,75.63
2022-11-13T06:59:44.575Z,78.83
2022-11-13T07:02:51.287Z,73.07
2022-11-13T07:05:38.843Z,81.57
2022-11-13T07:08:25.164Z,73.77
2022-11-13T07:11:13.371Z,75.37
2022-11-13T07:13:59.543Z,73.10
2022-11-13T07:17:07.903Z,82.53
2022-11-13T07:19:52.277Z,72.00
2022-11-13T07:22:40.048Z,75.77
2022-11-13T07:25:27.238Z,73.47
2022-11-13T07:28:13.250Z,75.40
2022-11-13T07:31:00.083Z,76.47
2022-11-13T07:33:49.319Z,76.73
2022-11-13T07:36:35.642Z,78.93
2022-11-13T07:39:23.040Z,89.03
2022-11-13T07:42:09.690Z,87.73
2022-11-13T07:44:56.368Z,76.27
2022-11-13T07:47:42.762Z,89.83
2022-11-13T07:50:30.182Z,97.40
2022-11-13T07:53:17.358Z,90.00
2022-11-13T07:56:05.643Z,91.87
2022-11-13T07:58:51.981Z,93.83
2022-11-13T08:01:38.438Z,91.87
2022-11-13T08:04:24.572Z,98.43
2022-11-13T08:07:12.253Z,99.60
2022-11-13T08:09:58.485Z,95.60
2022-11-13T08:12:46.417Z,98.20
2022-11-13T08:15:33.890Z,105.73
2022-11-13T08:18:20.324Z,97.73
2022-11-13T08:21:11.917Z,86.60
2022-11-13T08:24:00.888Z,89.20
2022-11-13T08:26:47.245Z,95.40
2022-11-13T08:29:37.160Z,104.53
2022-11-13T08:32:23.676Z,103.40
2022-11-13T08:35:10.598Z,106.27
2022-11-13T08:38:02.987Z,112.43
2022-11-13T08:40:49.313Z,105.10
2022-11-13T08:43:35.901Z,108.53
2022-11-13T08:46:23.613Z,107.53
2022-11-13T08:49:09.992Z,117.50
2022-11-13T08:51:56.442Z,113.17
2022-11-13T08:54:43.143Z,97.77
2022-11-13T08:57:29.338Z,120.87
2022-11-13T09:00:16.613Z,117.73
2022-11-13T09:03:04.667Z,120.57
2022-11-13T09:05:50.827Z,117.43
2022-11-13T09:08:37.278Z,116.03
2022-11-13T09:11:23.571Z,123.80
2022-11-13T09:14:09.851Z,124.17
2022-11-13T09:16:56.293Z,117.83
2022-11-13T09:19:44.278Z,120.33
2022-11-13T09:22:30.559Z,125.83
2022-11-13T09:25:17.204Z,131.27
2022-11-13T09:28:04.818Z,138.77
2022-11-13T09:30:50.913Z,127.17
2022-11-13T09:33:37.667Z,136.03
2022-11-13T09:36:25.396Z,141.47
2022-11-13T09:39:11.718Z,135.63
2022-11-13T09:42:03.627Z,146.13
2022-11-13T09:44:53.826Z,140.50
2022-11-13T09:47:45.138Z,139.23
2022-11-13T09:50:33.319Z,138.87
2022-11-13T09:53:22.105Z,154.80
2022-11-13T09:56:26.417Z,154.60
2022-11-13T09:59:22.339Z,144.73
2022-11-13T10:02:18.995Z,158.93
2022-11-13T10:05:12.381Z,154.13
2022-11-13T10:08:08.140Z,160.23
2022-11-13T10:11:03.700Z,164.43
2022-11-13T10:13:53.154Z,167.53
2022-11-13T10:16:44.884Z,163.37
2022-11-13T10:19:39.013Z,165.77
2022-11-13T10:22:33.428Z,175.57
2022-11-13T10:25:22.980Z,170.57
2022-11-13T10:31:24.656Z,158.23
2022-11-13T10:34:12.039Z,159.33
2022-11-13T10:37:18.116Z,173.83
2022-11-13T10:40:05.303Z,156.00
2022-11-13T10:42:51.858Z,148.03
2022-11-13T10:45:39.992Z,157.60
2022-11-13T10:48:29.446Z,168.07
2022-11-13T10:51:25.540Z,166.17
2022-11-13T10:54:24.391Z,163.27
2022-11-13T10:57:25.014Z,157.40
2022-11-13T11:00:31.783Z,181.83
2022-11-13T11:03:21.196Z,167.83
2022-11-13T11:06:08.196Z,169.07
2022-11-13T11:08:54.435Z,166.83
2022-11-13T11:11:58.535Z,192.67
2022-11-13T11:15:07.424Z,175.33
2022-11-13T11:17:58.679Z,175.53
2022-11-13T11:20:50.739Z,185.10
2022-11-13T11:23:44.019Z,176.83
2022-11-13T11:26:34.857Z,178.40
2022-11-13T11:29:29.358Z,184.20
2022-11-13T11:32:23.895Z,193.37
2022-11-13T11:35:16.797Z,197.47
2022-11-13T11:38:12.699Z,197.40
2022-11-13T11:41:07.654Z,186.47
2022-11-13T11:44:05.179Z,187.87
2022-11-13T11:46:51.390Z,203.57
2022-11-13T11:49:37.679Z,195.63
2022-11-13T11:52:38.767Z,190.67
2022-11-13T11:55:43.999Z,181.63
2022-11-13T11:58:44.311Z,187.97
2022-11-13T12:01:47.298Z,202.57
2022-11-13T12:04:47.825Z,183.60
2022-11-13T12:07:42.746Z,194.57
2022-11-13T12:10:39.502Z,203.27
2022-11-13T12:13:31.357Z,207.57
2022-11-13T12:16:25.569Z,195.17
2022-11-13T12:19:23.134Z,203.43
2022-11-13T12:22:18.741Z,190.80
2022-11-13T12:25:15.743Z,194.17
2022-11-13T12:28:15.553Z,188.63
2022-11-13T12:31:10.391Z,190.13
2022-11-13T12:34:05.514Z,192.00
2022-11-13T12:36:53.763Z,208.03
2022-11-13T12:39:48.584Z,208.00
2022-11-13T12:42:40.951Z,197.37
2022-11-13T12:45:42.638Z,201.60
2022-11-13T12:48:34.636Z,207.00
2022-11-13T12:51:21.141Z,222.70
2022-11-13T12:54:10.620Z,206.17
2022-11-13T12:57:09.040Z,211.00
2022-11-13T12:59:56.575Z,208.17
2022-11-13T13:02:56.822Z,198.83
2022-11-13T13:06:05.677Z,202.83
2022-11-13T13:09:14.608Z,215.23
2022-11-13T13:12:07.818Z,216.40
2022-11-13T13:15:13.013Z,215.60
2022-11-13T13:18:10.860Z,230.37
2022-11-13T13:21:06.244Z,240.43
2022-11-13T13:23:54.127Z,230.48
2022-11-13T13:26:46.319Z,225.38
2022-11-13T13:29:34.447Z,253.35
2022-11-13T13:32:24.462Z,252.95
2022-11-13T13:35:16.322Z,241.50
2022-11-13T13:38:11.235Z,232.20
2022-11-13T13:41:15.420Z,243.98
2022-11-13T13:44:19.695Z,241.80
2022-11-13T13:47:13.441Z,259.23
2022-11-13T13:49:59.955Z,244.20
2022-11-13T13:52:54.257Z,261.85
2022-11-13T13:55:48.068Z,269.50
2022-11-13T13:58:37.701Z,261.27
2022-11-13T14:01:29.535Z,225.38
2022-11-13T14:04:19.671Z,245.88
2022-11-13T14:07:19.506Z,243.57
2022-11-13T14:10:09.664Z,242.93
2022-11-13T14:12:57.036Z,262.55
2022-11-13T14:15:43.556Z,246.82
2022-11-13T14:18:30.175Z,237.20
2022-11-13T14:21:20.657Z,265.83
2022-11-13T14:24:15.066Z,268.25
2022-11-13T14:27:07.279Z,265.92
2022-11-13T14:29:56.569Z,268.77
2022-11-13T14:32:46.969Z,272.65
2022-11-13T14:35:34.117Z,269.70
2022-11-13T14:38:22.918Z,272.80
2022-11-13T14:41:20.945Z,262.95
2022-11-13T14:44:11.526Z,252.07
2022-11-13T14:47:02.902Z,269.40
2022-11-13T14:49:49.423Z,252.70
2022-11-13T14:52:36.734Z,272.27
2022-11-13T14:55:25.565Z,246.85
2022-11-13T14:58:14.672Z,253.95
2022-11-13T15:01:14.909Z,247.20
2022-11-13T15:04:01.002Z,250.13
2022-11-13T15:06:48.548Z,242.07
2022-11-13T15:09:35.557Z,246.80
2022-11-13T15:12:21.958Z,264.45
2022-11-13T15:15:14.301Z,246.07
2022-11-13T15:18:03.141Z,252.27
2022-11-13T15:20:49.570Z,244.27
2022-11-13T15:23:35.982Z,236.20
2022-11-13T15:26:22.491Z,252.43
2022-11-13T15:29:08.740Z,243.40
2022-11-13T15:31:55.501Z,237.35
2022-11-13T15:34:43.248Z,222.10
2022-11-13T15:37:29.457Z,251.13
2022-11-13T15:40:16.808Z,240.25
2022-11-13T15:43:04.206Z,238.57
2022-11-13T15:45:50.523Z,223.47
2022-11-13T15:48:36.580Z,224.13
2022-11-13T15:51:31.949Z,227.00
2022-11-13T15:54:25.524Z,225.33
2022-11-13T15:57:18.033Z,218.27
2022-11-13T16:00:04.691Z,211.23
2022-11-13T16:02:51.945Z,227.37
2022-11-13T16:05:38.095Z,198.07
2022-11-13T16:08:25.943Z,201.83
2022-11-13T16:11:15.597Z,195.17
2022-11-13T16:14:02.366Z,204.17
2022-11-13T16:16:50.511Z,210.97
2022-11-13T16:19:38.599Z,216.40
2022-11-13T16:22:26.919Z,205.43
2022-11-13T16:25:16.968Z,207.53
2022-11-13T16:28:03.235Z,202.70
2022-11-13T16:30:50.591Z,187.43
2022-11-13T16:33:36.765Z,207.33
2022-11-13T16:36:23.634Z,175.27
2022-11-13T16:39:15.665Z,201.23
2022-11-13T16:42:03.449Z,192.03
2022-11-13T16:44:49.588Z,187.17
2022-11-13T16:47:36.446Z,174.83
2022-11-13T16:50:24.558Z,183.20
2022-11-13T16:53:10.942Z,169.17
2022-11-13T16:55:57.501Z,163.37
2022-11-13T16:58:45.399Z,171.43
2022-11-13T17:01:31.941Z,165.23
2022-11-13T17:04:18.106Z,171.33
2022-11-13T17:07:04.609Z,160.90
2022-11-13T17:10:10.101Z,175.30
2022-11-13T17:12:57.052Z,156.23
2022-11-13T17:15:44.901Z,151.53
2022-11-13T17:18:31.374Z,159.40
2022-11-13T17:21:17.961Z,151.00
2022-11-13T17:24:04.717Z,164.30
2022-11-13T17:26:51.081Z,161.73
2022-11-13T17:29:38.525Z,156.60
2022-11-13T17:32:26.596Z,159.43
2022-11-13T17:35:13.220Z,157.33
2022-11-13T17:37:59.366Z,149.63
2022-11-13T17:40:45.762Z,158.50
2022-11-13T17:43:32.132Z,155.87
2022-11-13T17:46:19.019Z,162.03
2022-11-13T17:49:06.778Z,156.60
2022-11-13T17:51:52.836Z,144.20
2022-11-13T17:54:39.350Z,140.53
2022-11-13T17:57:27.068Z,153.40
2022-11-13T18:00:14.432Z,141.00
2022-11-13T18:03:00.609Z,152.77
2022-11-13T18:05:48.125Z,155.37
2022-11-13T18:08:35.163Z,137.03
2022-11-13T18:11:24.574Z,137.43
2022-11-13T18:14:10.734Z,143.27
2022-11-13T18:16:57.164Z,149.30
2022-11-13T18:19:43.441Z,141.93
2022-11-13T18:22:31.532Z,137.47
2022-11-13T18:25:18.127Z,135.77
2022-11-13T18:28:04.218Z,141.57
2022-11-13T18:30:56.114Z,139.87
2022-11-13T18:33:43.142Z,148.23
2022-11-13T18:36:31.586Z,130.87
2022-11-13T18:39:19.052Z,134.80
2022-11-13T18:42:05.343Z,138.17
2022-11-13T18:44:51.656Z,132.93
2022-11-13T18:47:37.921Z,140.73
2022-11-13T18:50:24.311Z,130.87
2022-11-13T18:53:10.575Z,139.67
2022-11-13T18:56:01.660Z,130.80
2022-11-13T18:58:48.963Z,129.57
2022-11-13T19:01:36.321Z,145.23
2022-11-13T19:04:23.989Z,130.37
2022-11-13T19:07:12.115Z,139.47
2022-11-13T19:09:58.555Z,136.07
2022-11-13T19:12:46.406Z,154.80
2022-11-13T19:15:34.023Z,147.20
2022-11-13T19:18:20.449Z,136.60
2022-11-13T19:21:08.078Z,145.03
2022-11-13T19:23:54.699Z,147.63
2022-11-13T19:26:41.566Z,149.37
2022-11-13T19:29:29.278Z,169.80
2022-11-13T19:32:15.810Z,145.80
2022-11-13T19:35:02.118Z,155.23
2022-11-13T19:37:48.601Z,148.67
2022-11-13T19:40:34.871Z,165.57
2022-11-13T19:43:21.347Z,164.00
2022-11-13T19:46:10.804Z,175.47
2022-11-13T19:48:57.032Z,167.57
2022-11-13T19:51:43.247Z,168.80
2022-11-13T19:54:29.490Z,173.53
2022-11-13T19:57:15.593Z,176.50
2022-11-13T20:00:01.667Z,156.53
2022-11-13T20:02:49.360Z,168.17
2022-11-13T20:05:35.848Z,167.43
2022-11-13T20:08:26.836Z,177.60
2022-11-13T20:11:15.052Z,162.37
2022-11-13T20:14:01.375Z,154.67
2022-11-13T20:16:47.522Z,170.23
2022-11-13T20:19:35.065Z,182.93
2022-11-13T20:22:21.625Z,170.87
2022-11-13T20:25:08.581Z,184.60
2022-11-13T20:27:55.117Z,181.40
2022-11-13T20:30:41.466Z,181.37
2022-11-13T20:33:27.690Z,179.57
2022-11-13T20:36:17.053Z,169.63
2022-11-13T20:39:12.277Z,167.87
2022-11-13T20:41:58.510Z,184.10
2022-11-13T20:44:44.592Z,182.07
2022-11-13T20:47:30.654Z,178.40
2022-11-13T20:50:17.013Z,194.17
2022-11-13T20:53:04.896Z,205.67
2022-11-13T20:55:51.285Z,203.47
2022-11-13T20:58:38.447Z,214.63
2022-11-13T21:01:26.767Z,227.07
2022-11-13T21:04:31.762Z,219.70
2022-11-13T21:07:38.274Z,220.07
2022-11-13T21:10:46.363Z,198.10
2022-11-13T21:13:55.287Z,199.27
2022-11-13T21:17:01.722Z,192.23
2022-11-13T21:20:09.551Z,194.07
2022-11-13T21:23:16.315Z,175.67
2022-11-13T21:26:24.639Z,175.97
2022-11-13T21:29:31.354Z,179.87
2022-11-13T21:32:39.051Z,181.67
2022-11-13T21:35:45.402Z,163.17
2022-11-13T21:38:53.242Z,154.67
2022-11-13T21:42:01.038Z,149.60
2022-11-13T21:45:08.405Z,151.77
2022-11-13T21:48:16.401Z,143.83
2022-11-13T21:51:23.166Z,138.13
2022-11-13T21:54:30.046Z,142.97
2022-11-13T21:57:37.754Z,141.00
2022-11-13T22:00:44.744Z,139.33
2022-11-13T22:03:51.799Z,134.23
2022-11-13T22:06:58.543Z,130.63
2022-11-13T22:10:08.505Z,132.90
2022-11-13T22:13:16.385Z,136.17
2022-11-13T22:16:23.744Z,121.93
2022-11-13T22:19:35.636Z,134.53
2022-11-13T22:22:42.876Z,128.67
2022-11-13T22:25:49.216Z,131.57
2022-11-13T22:28:57.753Z,130.50
2022-11-13T22:32:04.253Z,129.63
2022-11-13T22:35:10.687Z,111.47
2022-11-13T22:38:16.988Z,119.10
2022-11-13T22:41:25.187Z,115.17
2022-11-13T22:44:51.605Z,114.60
2022-11-13T22:47:59.126Z,106.90
2022-11-13T22:51:07.608Z,100.80
2022-11-13T22:54:14.283Z,105.87
2022-11-13T22:57:20.839Z,100.50
2022-11-13T23:00:28.507Z,95.37
2022-11-13T23:03:38.013Z,99.07
2022-11-13T23:06:44.501Z,102.53
2022-11-13T23:09:50.865Z,93.97
2022-11-13T23:12:57.159Z,97.53
2022-11-13T23:16:05.389Z,87.37
2022-11-13T23:19:12.411Z,98.63
2022-11-13T23:22:19.283Z,88.13
2022-11-13T23:25:26.022Z,85.00
2022-11-13T23:28:32.587Z,86.30
2022-11-13T23:31:40.433Z,90.10
2022-11-13T23:34:59.024Z,88.90
2022-11-13T23:38:06.248Z,89.20
2022-11-13T23:41:13.177Z,99.43
2022-11-13T23:44:19.684Z,92.50
2022-11-13T23:47:27.636Z,93.00
2022-11-13T23:50:34.347Z,102.00
2022-11-13T23:53:41.033Z,106.67
2022-11-13T23:56:47.387Z,104.23
2022-11-13T23:59:53.695Z,113.37
